Time;durP1;ratioP1;P1;durP2;ratioP2;P2;SDS_P1;SDS_P2;PMS_P1;PMS_P2;Temp;Humidity;BMP_temperature;BMP_pressure;BME280_temperature;BME280_humidity;BME280_pressure;Samples;Min_cycle;Max_cycle;Signal;HPM_P1;HPM_P2
2022/05/16 00:02:04;;;;;;;4.45;1.35;;;16.50;63.60;;;;;;5014654;28;20037;-87
2022/05/16 00:04:30;;;;;;;5.80;1.50;;;16.50;63.50;;;;;;5015815;28;20093;-88
2022/05/16 00:06:55;;;;;;;4.65;1.23;;;16.40;64.30;;;;;;5013558;28;20057;-86
2022/05/16 00:09:22;;;;;;;7.82;1.50;;;16.30;65.10;;;;;;5028359;28;20041;-87
2022/05/16 00:11:49;;;;;;;5.97;1.23;;;16.20;65.30;;;;;;5012849;28;20050;-87
2022/05/16 00:14:14;;;;;;;5.68;2.08;;;16.20;65.80;;;;;;5012467;28;20073;-86
2022/05/16 00:16:40;;;;;;;4.70;2.53;;;16.20;65.60;;;;;;5013206;28;20053;-88
2022/05/16 00:19:06;;;;;;;3.97;1.88;;;16.30;64.90;;;;;;4995066;28;20136;-87
2022/05/16 00:21:33;;;;;;;4.97;1.65;;;16.40;63.70;;;;;;5012649;28;20444;-88
2022/05/16 00:24:01;;;;;;;4.38;1.58;;;16.50;63.20;;;;;;5012716;28;20045;-86
2022/05/16 00:26:26;;;;;;;3.88;1.30;;;16.50;62.70;;;;;;5012629;28;20057;-87
2022/05/16 00:28:52;;;;;;;6.45;1.40;;;16.60;62.70;;;;;;5028348;28;20103;-87
2022/05/16 00:31:17;;;;;;;5.57;1.10;;;16.60;62.70;;;;;;5012900;28;20026;-88
2022/05/16 00:33:43;;;;;;;3.88;1.27;;;16.60;62.60;;;;;;5012874;28;20030;-87
2022/05/16 00:36:10;;;;;;;3.72;1.50;;;16.60;62.60;;;;;;5012716;28;20026;-87
2022/05/16 00:38:36;;;;;;;1.58;1.20;;;16.60;63.20;;;;;;5012461;28;20060;-88
2022/05/16 00:41:07;;;;;;;5.50;1.60;;;16.60;62.80;;;;;;5027926;28;20321;-87
2022/05/16 00:43:44;;;;;;;7.28;1.48;;;16.50;62.60;;;;;;4994824;28;20364;-86
2022/05/16 00:46:11;;;;;;;2.90;1.08;;;16.50;62.60;;;;;;5012264;28;20037;-85
2022/05/16 00:48:36;;;;;;;4.35;1.27;;;16.50;63.30;;;;;;5012362;28;20053;-89
2022/05/16 00:51:11;;;;;;;6.47;1.38;;;16.40;64.60;;;;;;5013288;28;20660;-90
2022/05/16 00:53:38;;;;;;;4.32;1.52;;;16.30;64.70;;;;;;4996101;28;20041;-88
2022/05/16 00:56:07;;;;;;;2.95;1.00;;;16.20;65.10;;;;;;4995724;28;20040;-88
2022/05/16 00:58:36;;;;;;;4.93;1.20;;;16.20;64.80;;;;;;4995702;28;20041;-87
2022/05/16 01:04:47;;;;;;;4.35;1.58;;;16.30;64.40;;;;;;5013065;28;20398;-86
2022/05/16 01:06:39;;;;;;;1.77;0.98;;;16.30;64.20;;;;;;5014614;28;20037;-84
2022/05/16 01:09:05;;;;;;;10.77;1.52;;;16.30;64.10;;;;;;5014079;28;20364;-85
2022/05/16 01:11:33;;;;;;;4.20;1.25;;;16.30;64.40;;;;;;4997822;28;20188;-87
2022/05/16 01:14:00;;;;;;;5.28;1.17;;;16.20;64.10;;;;;;5016202;28;20044;-87
2022/05/16 01:16:25;;;;;;;8.52;1.75;;;16.20;64.40;;;;;;5014998;28;20042;-82
2022/05/16 01:18:51;;;;;;;3.92;1.40;;;16.20;64.40;;;;;;4997522;28;20080;-86
2022/05/16 01:21:33;;;;;;;5.55;1.13;;;16.10;64.30;;;;;;5015725;28;20037;-85
2022/05/16 01:24:15;;;;;;;4.90;1.40;;;16.10;64.20;;;;;;5016231;28;20034;-89
2022/05/16 01:26:41;;;;;;;2.65;1.10;;;16.10;64.30;;;;;;5016369;28;20530;-87
2022/05/16 01:29:09;;;;;;;1.40;1.10;;;16.00;64.60;;;;;;5016218;28;20100;-87
2022/05/16 01:31:34;;;;;;;4.27;1.60;;;16.00;64.50;;;;;;5016331;28;20098;-89
2022/05/16 01:34:00;;;;;;;2.90;1.27;;;15.90;64.70;;;;;;5030976;28;20080;-86
2022/05/16 01:36:27;;;;;;;3.92;1.25;;;16.00;64.90;;;;;;5029184;28;20022;-87
2022/05/16 01:38:53;;;;;;;3.42;1.20;;;15.90;65.00;;;;;;5034945;28;20064;-86
2022/05/16 01:41:24;;;;;;;5.72;1.38;;;15.80;65.20;;;;;;5037190;28;20068;-88
2022/05/16 01:43:55;;;;;;;2.97;1.63;;;15.80;65.20;;;;;;5044032;28;20104;-88
2022/05/16 01:46:32;;;;;;;5.43;1.45;;;15.80;65.30;;;;;;5039781;28;20520;-86
2022/05/16 01:48:57;;;;;;;4.43;1.52;;;15.70;65.90;;;;;;5056666;28;20045;-86
2022/05/16 01:51:23;;;;;;;10.38;1.60;;;15.60;65.60;;;;;;5034673;28;20111;-87
2022/05/16 01:53:49;;;;;;;4.15;1.38;;;15.60;65.60;;;;;;5049938;28;20025;-87
2022/05/16 01:56:17;;;;;;;4.85;1.60;;;15.60;65.40;;;;;;5034493;28;20033;-85
2022/05/16 01:58:44;;;;;;;;;;;15.60;65.90;;;;;;5051390;28;20025;-89
2022/05/16 02:01:11;;;;;;;5.07;1.20;;;15.50;66.40;;;;;;5017697;28;20346;-89
2022/05/16 02:03:42;;;;;;;2.92;1.10;;;15.50;66.30;;;;;;5034845;28;20354;-88
2022/05/16 02:06:09;;;;;;;3.88;1.38;;;15.40;66.30;;;;;;5050832;28;20329;-87
2022/05/16 02:08:35;;;;;;;4.05;1.30;;;15.40;67.30;;;;;;5035100;28;20112;-88
2022/05/16 02:11:01;;;;;;;3.58;1.75;;;15.30;67.50;;;;;;5034042;28;20503;-85
2022/05/16 02:13:28;;;;;;;2.75;1.40;;;15.30;68.00;;;;;;5034544;28;20037;-87
2022/05/16 02:15:53;;;;;;;2.42;1.23;;;15.30;67.30;;;;;;5033947;28;20053;-86
2022/05/16 02:18:20;;;;;;;9.02;1.35;;;15.20;67.90;;;;;;5034796;28;20087;-87
2022/05/16 02:20:46;;;;;;;7.15;1.38;;;15.10;68.60;;;;;;5034566;28;20052;-87
2022/05/16 02:25:58;;;;;;;2.63;1.25;;;14.90;69.60;;;;;;5035625;28;20099;-89
2022/05/16 02:28:24;;;;;;;4.38;0.93;;;15.00;68.80;;;;;;5035124;28;20125;-89
2022/05/16 02:30:51;;;;;;;3.28;1.17;;;15.00;68.50;;;;;;5050656;28;20432;-88
2022/05/16 02:33:18;;;;;;;2.72;1.08;;;15.00;68.30;;;;;;5035288;28;20045;-89
2022/05/16 02:35:45;;;;;;;8.88;1.17;;;15.00;68.50;;;;;;5034087;28;20030;-88
2022/05/16 02:38:12;;;;;;;4.07;1.17;;;15.00;68.60;;;;;;5033315;28;20026;-89
2022/05/16 02:40:38;;;;;;;2.63;1.13;;;15.00;68.80;;;;;;5034455;28;20108;-89
2022/05/16 02:43:04;;;;;;;4.45;1.20;;;15.00;68.70;;;;;;5034365;28;20025;-88
2022/05/16 02:45:32;;;;;;;3.70;1.67;;;15.00;69.10;;;;;;5033978;28;20116;-87
2022/05/16 02:47:58;;;;;;;6.53;1.50;;;14.90;69.30;;;;;;5034402;28;20069;-89
2022/05/16 02:50:25;;;;;;;4.03;1.20;;;14.90;69.10;;;;;;5033557;28;20256;-87
2022/05/16 02:52:51;;;;;;;3.25;1.20;;;14.90;69.70;;;;;;5033321;28;20219;-87
2022/05/16 02:55:17;;;;;;;4.75;1.25;;;14.90;69.70;;;;;;5033433;28;20033;-87
2022/05/16 02:57:42;;;;;;;9.40;2.42;;;14.80;69.80;;;;;;5033481;28;20136;-88
2022/05/16 03:00:10;;;;;;;2.92;1.08;;;14.90;70.00;;;;;;5033753;28;20041;-87
2022/05/16 03:02:36;;;;;;;4.88;1.45;;;14.80;70.00;;;;;;5033554;28;20030;-86
2022/05/16 03:05:03;;;;;;;4.75;1.10;;;14.70;70.60;;;;;;5033652;28;20033;-88
2022/05/16 03:07:29;;;;;;;6.60;1.38;;;14.70;70.90;;;;;;5033994;28;20456;-85
2022/05/16 03:09:55;;;;;;;4.72;1.25;;;14.70;71.00;;;;;;5032736;28;20036;-86
2022/05/16 03:12:26;;;;;;;3.85;1.48;;;14.70;70.90;;;;;;5034104;28;20036;-88
2022/05/16 03:14:52;;;;;;;4.32;1.30;;;14.70;70.80;;;;;;5033572;28;20040;-87
2022/05/16 03:17:17;;;;;;;3.33;1.55;;;14.70;70.40;;;;;;5032653;28;20373;-85
2022/05/16 03:19:43;;;;;;;2.70;1.40;;;14.70;70.70;;;;;;5032062;28;20029;-86
2022/05/16 03:22:09;;;;;;;3.85;1.50;;;14.70;71.00;;;;;;5030812;28;20614;-86
2022/05/16 03:24:36;;;;;;;5.30;1.42;;;14.60;71.20;;;;;;5031805;28;20419;-85
2022/05/16 03:27:02;;;;;;;4.47;1.33;;;14.60;71.30;;;;;;5031250;28;20033;-85
2022/05/16 03:29:28;;;;;;;4.75;1.33;;;14.60;71.30;;;;;;5031812;28;20406;-85
2022/05/16 03:31:54;;;;;;;4.97;1.33;;;14.60;71.30;;;;;;5032042;28;20033;-86
2022/05/16 03:34:20;;;;;;;3.95;1.10;;;14.60;71.50;;;;;;5031942;28;20033;-86
2022/05/16 03:36:46;;;;;;;3.22;1.42;;;14.50;71.70;;;;;;5047109;28;20032;-85
2022/05/16 03:41:57;;;;;;;5.63;1.55;;;14.40;72.10;;;;;;5031892;28;20090;-86
2022/05/16 03:44:23;;;;;;;4.15;1.58;;;14.40;72.20;;;;;;5030649;28;20029;-83
2022/05/16 03:46:49;;;;;;;2.03;1.23;;;14.40;72.70;;;;;;5032126;28;20053;-86
2022/05/16 03:49:15;;;;;;;4.03;1.33;;;14.30;72.80;;;;;;5032867;28;20068;-88
2022/05/16 03:51:41;;;;;;;3.88;1.30;;;14.30;72.70;;;;;;5032813;28;20442;-88
2022/05/16 03:54:06;;;;;;;3.90;1.50;;;14.30;73.20;;;;;;5032927;28;20042;-88
2022/05/16 03:56:33;;;;;;;2.97;1.25;;;14.20;73.50;;;;;;5032054;28;20526;-87
2022/05/16 03:58:59;;;;;;;2.38;1.30;;;14.30;73.60;;;;;;5047106;28;20352;-88
2022/05/16 04:01:25;;;;;;;4.38;1.80;;;14.20;74.20;;;;;;5032544;28;20450;-86
2022/05/16 04:03:51;;;;;;;2.58;1.35;;;14.20;74.50;;;;;;5032270;28;20030;-88
2022/05/16 04:06:17;;;;;;;3.63;1.40;;;14.20;74.50;;;;;;5032472;28;20032;-86
2022/05/16 04:08:44;;;;;;;5.72;1.45;;;14.20;74.50;;;;;;5033243;28;20072;-86
2022/05/16 04:11:11;;;;;;;5.30;1.77;;;14.20;74.50;;;;;;5049591;28;20068;-88
2022/05/16 04:13:37;;;;;;;4.45;1.40;;;14.20;74.90;;;;;;5033567;28;20044;-90
2022/05/16 04:16:09;;;;;;;3.13;1.63;;;14.20;74.70;;;;;;5032909;28;20053;-87
2022/05/16 04:18:36;;;;;;;6.47;1.50;;;14.20;75.00;;;;;;5032767;28;20063;-87
2022/05/16 04:21:10;;;;;;;3.95;1.63;;;14.20;75.50;;;;;;5032644;28;20122;-89
2022/05/16 04:23:42;;;;;;;5.40;1.60;;;14.20;76.20;;;;;;5033184;28;20034;-89
2022/05/16 04:26:08;;;;;;;7.05;1.65;;;14.10;75.70;;;;;;5033668;28;20373;-89
2022/05/16 04:28:33;;;;;;;5.50;1.83;;;14.10;75.90;;;;;;5033502;28;20037;-89
2022/05/16 04:30:59;;;;;;;2.65;1.25;;;14.20;76.30;;;;;;5031886;28;20026;-89
2022/05/16 04:33:26;;;;;;;4.18;1.60;;;14.10;77.30;;;;;;5033176;28;20299;-87
2022/05/16 04:35:53;;;;;;;4.82;1.80;;;14.10;77.10;;;;;;5034926;28;20034;-89
2022/05/16 04:38:20;;;;;;;4.30;1.58;;;14.10;77.10;;;;;;5036804;28;20036;-89
2022/05/16 04:43:29;;;;;;;4.32;1.92;;;14.20;76.90;;;;;;5037011;28;20436;-89
2022/05/16 04:45:55;;;;;;;3.75;1.50;;;14.20;77.00;;;;;;5036323;28;20108;-86
2022/05/16 04:48:23;;;;;;;5.43;1.63;;;14.30;76.90;;;;;;5036059;28;20041;-86
2022/05/16 04:50:49;;;;;;;6.00;1.55;;;14.30;77.10;;;;;;5036107;28;20034;-87
2022/05/16 04:53:15;;;;;;;4.30;1.40;;;14.30;77.40;;;;;;5051275;28;20034;-87
2022/05/16 04:55:40;;;;;;;8.18;2.83;;;14.30;77.30;;;;;;5034294;28;20574;-87
2022/05/16 04:58:06;;;;;;;2.90;1.60;;;14.30;77.40;;;;;;5034831;28;20030;-89
2022/05/16 05:00:33;;;;;;;4.63;1.77;;;14.40;77.70;;;;;;5036131;28;20497;-89
2022/05/16 05:02:58;;;;;;;6.00;1.50;;;14.50;77.60;;;;;;5036244;28;20029;-87
2022/05/16 05:05:24;;;;;;;6.70;1.40;;;14.40;77.70;;;;;;5035778;28;20045;-88
2022/05/16 05:07:50;;;;;;;6.78;1.75;;;14.50;77.60;;;;;;5035323;28;20061;-89
2022/05/16 05:15:48;;;;;;;2.63;1.50;;;14.70;77.40;;;;;;5035561;28;20531;-87
2022/05/16 05:18:14;;;;;;;9.00;2.00;;;14.70;77.40;;;;;;5033981;28;20051;-78
2022/05/16 05:20:39;;;;;;;4.57;1.77;;;14.70;77.50;;;;;;5033928;28;20033;-86
2022/05/16 05:23:06;;;;;;;2.25;1.42;;;14.70;77.40;;;;;;5033646;28;20388;-90
2022/05/16 05:25:32;;;;;;;6.18;2.22;;;14.80;77.60;;;;;;5034032;28;20030;-79
2022/05/16 05:28:02;;;;;;;4.55;1.73;;;14.90;77.50;;;;;;5049717;28;20045;-85
2022/05/16 05:30:30;;;;;;;5.22;1.67;;;14.90;77.40;;;;;;5034510;28;20672;-90
2022/05/16 05:32:56;;;;;;;6.60;2.00;;;14.90;77.80;;;;;;5034769;28;20033;-91
2022/05/16 05:35:21;;;;;;;8.77;2.13;;;15.00;77.60;;;;;;5034048;28;20049;-85
2022/05/16 05:37:47;;;;;;;10.85;1.90;;;15.00;77.50;;;;;;5035019;28;20037;-87
2022/05/16 05:40:14;;;;;;;7.40;2.00;;;15.10;77.40;;;;;;5050627;28;20033;-88
2022/05/16 05:42:40;;;;;;;8.82;1.90;;;15.20;77.20;;;;;;5035974;28;20628;-86
2022/05/16 05:45:08;;;;;;;7.10;2.03;;;15.30;77.10;;;;;;5035778;28;20052;-82
2022/05/16 05:47:33;;;;;;;9.57;2.70;;;15.30;77.10;;;;;;5047668;28;20033;-79
2022/05/16 05:50:01;;;;;;;9.18;2.55;;;15.50;76.70;;;;;;5031771;28;20044;-78
2022/05/16 05:52:28;;;;;;;7.22;2.10;;;15.70;76.30;;;;;;5015267;28;20025;-79
2022/05/16 05:54:55;;;;;;;9.30;2.33;;;16.00;75.90;;;;;;5032722;28;20029;-77
2022/05/16 05:57:21;;;;;;;5.35;2.15;;;16.50;75.20;;;;;;5032796;28;20321;-80
2022/05/16 05:59:46;;;;;;;6.88;2.55;;;17.00;73.90;;;;;;5033098;28;20053;-79
2022/05/16 06:02:12;;;;;;;10.10;2.92;;;17.40;73.00;;;;;;5015232;28;20375;-79
2022/05/16 06:04:38;;;;;;;7.43;2.13;;;17.70;71.90;;;;;;5032678;28;20044;-78
2022/05/16 06:07:04;;;;;;;5.00;2.58;;;18.00;71.20;;;;;;5032704;28;20033;-79
2022/05/16 06:09:29;;;;;;;11.02;3.33;;;18.20;70.10;;;;;;5033494;28;20025;-79
2022/05/16 06:11:58;;;;;;;14.43;2.40;;;18.40;69.30;;;;;;5032726;28;20439;-78
2022/05/16 06:14:26;;;;;;;10.27;2.83;;;18.50;68.80;;;;;;5047850;28;20112;-78
2022/05/16 06:16:52;;;;;;;19.63;2.80;;;18.60;68.50;;;;;;5047622;28;20041;-79
2022/05/16 06:19:18;;;;;;;10.70;3.22;;;18.60;68.80;;;;;;5032762;28;20675;-79
2022/05/16 06:21:43;;;;;;;6.20;2.20;;;18.80;67.80;;;;;;5032581;28;20033;-78
2022/05/16 06:25:31;;;;;;;9.52;2.70;;;19.00;67.90;;;;;;5032790;28;20025;-78
2022/05/16 06:26:54;;;;;;;12.90;2.83;;;19.20;66.80;;;;;;5032004;28;20022;-79
2022/05/16 06:29:21;;;;;;;10.07;2.42;;;19.40;66.40;;;;;;5032111;28;20406;-78
2022/05/16 06:31:46;;;;;;;9.15;2.20;;;19.40;66.60;;;;;;5032222;28;20033;-80
2022/05/16 06:34:12;;;;;;;7.63;2.83;;;19.30;66.20;;;;;;5032086;28;20469;-78
2022/05/16 06:36:37;;;;;;;12.93;3.13;;;19.30;66.00;;;;;;5030786;28;20053;-78
2022/05/16 06:39:03;;;;;;;8.52;2.28;;;19.20;66.20;;;;;;5032994;28;20025;-77
2022/05/16 06:41:28;;;;;;;5.18;2.67;;;19.40;65.80;;;;;;5032626;28;20148;-78
2022/05/16 06:43:54;;;;;;;12.48;2.33;;;19.40;65.70;;;;;;5032817;28;20026;-78
2022/05/16 06:46:20;;;;;;;9.02;1.90;;;19.40;65.50;;;;;;5032661;28;20422;-78
2022/05/16 06:48:45;;;;;;;9.77;2.40;;;19.10;66.00;;;;;;5032632;28;20591;-77
2022/05/16 06:51:11;;;;;;;17.10;2.50;;;19.10;65.70;;;;;;5033193;28;20033;-81
2022/05/16 06:53:36;;;;;;;6.57;2.20;;;19.20;65.80;;;;;;5033564;28;20025;-79
2022/05/16 06:56:03;;;;;;;13.38;2.80;;;19.10;66.00;;;;;;5033960;28;20049;-80
2022/05/16 06:58:32;;;;;;;7.38;2.00;;;18.90;66.20;;;;;;5024286;28;20045;-80
2022/05/16 07:00:58;;;;;;;6.20;2.30;;;19.00;66.50;;;;;;5031575;28;20029;-81
2022/05/16 07:03:24;;;;;;;5.20;1.98;;;19.00;66.40;;;;;;5032245;28;20024;-81
2022/05/16 07:05:50;;;;;;;8.20;2.38;;;19.20;66.10;;;;;;5015925;28;20056;-79
2022/05/16 07:08:19;;;;;;;5.65;2.30;;;19.20;66.40;;;;;;5033839;28;20182;-80
2022/05/16 07:10:46;;;;;;;4.97;2.40;;;19.30;66.20;;;;;;5033442;28;20112;-80
2022/05/16 07:13:12;;;;;;;6.75;2.17;;;19.30;65.90;;;;;;5033338;28;20043;-79
2022/05/16 07:15:38;;;;;;;10.48;2.22;;;19.50;66.10;;;;;;5048442;28;20029;-79
2022/05/16 07:18:04;;;;;;;8.57;2.40;;;19.50;66.30;;;;;;5032562;28;20296;-78
2022/05/16 07:20:29;;;;;;;8.30;2.40;;;19.60;65.70;;;;;;5032988;28;20363;-78
2022/05/16 07:22:58;;;;;;;9.57;2.45;;;19.70;65.70;;;;;;5031435;28;20026;-78
2022/05/16 07:25:26;;;;;;;5.93;2.33;;;19.60;66.10;;;;;;5032447;28;20037;-78
2022/05/16 07:28:02;;;;;;;4.45;2.13;;;19.70;66.30;;;;;;5033089;28;20100;-80
2022/05/16 07:30:33;;;;;;;9.38;2.83;;;19.80;65.60;;;;;;5033133;28;20447;-78
2022/05/16 07:32:59;;;;;;;5.47;2.03;;;19.90;65.80;;;;;;5033743;28;20034;-80
2022/05/16 07:35:29;;;;;;;9.88;2.92;;;19.90;65.70;;;;;;5032201;28;20107;-78
2022/05/16 07:37:56;;;;;;;5.68;2.33;;;20.00;65.30;;;;;;5049734;28;20033;-78
2022/05/16 07:40:25;;;;;;;9.00;3.22;;;20.10;65.20;;;;;;5033212;28;20056;-81
2022/05/16 07:42:52;;;;;;;12.88;2.38;;;20.30;65.10;;;;;;5033070;28;20022;-79
2022/05/16 07:45:19;;;;;;;7.38;2.17;;;20.50;64.90;;;;;;5033960;28;20045;-80
2022/05/16 07:47:45;;;;;;;14.75;2.20;;;20.50;64.70;;;;;;5033498;28;20086;-80
2022/05/16 07:50:12;;;;;;;10.05;2.00;;;20.50;64.70;;;;;;5034231;28;20471;-78
2022/05/16 07:52:41;;;;;;;5.47;2.33;;;20.50;64.40;;;;;;5033211;28;20066;-79
2022/05/16 07:55:07;;;;;;;11.55;2.22;;;20.80;63.90;;;;;;5049026;28;20040;-80
2022/05/16 07:57:32;;;;;;;6.18;2.22;;;21.00;63.80;;;;;;5033344;28;20025;-79
2022/05/16 07:59:58;;;;;;;8.18;2.95;;;21.30;63.60;;;;;;5033578;28;20033;-79
2022/05/16 08:02:24;;;;;;;6.78;2.70;;;21.40;63.50;;;;;;5032998;28;20025;-80
2022/05/16 08:04:49;;;;;;;9.90;2.22;;;21.70;63.50;;;;;;5033129;28;20033;-76
2022/05/16 08:07:15;;;;;;;9.10;1.95;;;22.20;62.60;;;;;;5031912;28;20511;-75
2022/05/16 08:12:28;;;;;;;7.55;2.33;;;23.60;60.00;;;;;;5036110;28;20052;-84
2022/05/16 08:14:54;;;;;;;3.05;1.80;;;24.60;60.10;;;;;;5036213;28;20041;-76
2022/05/16 08:17:22;;;;;;;7.45;2.15;;;25.80;57.50;;;;;;5035555;28;20046;-82
2022/05/16 08:19:48;;;;;;;18.80;3.75;;;26.60;55.80;;;;;;5035315;28;20038;-86
2022/05/16 08:22:17;;;;;;;10.95;2.30;;;27.80;52.40;;;;;;5035106;28;20433;-78
2022/05/16 08:24:44;;;;;;;11.38;2.28;;;28.60;50.30;;;;;;5034599;28;20429;-77
2022/05/16 08:27:10;;;;;;;5.78;1.80;;;28.30;48.70;;;;;;5035524;28;20036;-77
2022/05/16 08:29:36;;;;;;;5.13;1.77;;;29.10;49.00;;;;;;5034863;28;20029;-77
2022/05/16 08:32:03;;;;;;;10.45;2.88;;;30.00;48.70;;;;;;5034536;28;20040;-77
2022/05/16 08:34:29;;;;;;;9.00;2.28;;;30.80;46.20;;;;;;5034255;28;20063;-76
2022/05/16 08:39:52;;;;;;;10.23;2.05;;;32.00;45.60;;;;;;5034659;28;20036;-78
2022/05/16 08:42:22;;;;;;;8.65;2.17;;;33.00;42.50;;;;;;5035029;28;20018;-89
2022/05/16 08:45:21;;;;;;;7.13;2.00;;;33.00;42.20;;;;;;5035655;28;20045;-80
2022/05/16 08:48:04;;;;;;;10.88;2.25;;;33.60;41.90;;;;;;4973707;28;20428;-78
2022/05/16 08:50:52;;;;;;;8.55;2.22;;;33.60;40.50;;;;;;5034541;28;20032;-79
2022/05/16 08:53:18;;;;;;;12.82;2.67;;;33.60;40.80;;;;;;5049511;28;20531;-76
2022/05/16 08:55:50;;;;;;;9.27;2.22;;;34.50;40.30;;;;;;5033784;28;20121;-78
2022/05/16 08:58:41;;;;;;;8.95;2.40;;;34.50;39.20;;;;;;5034061;28;20097;-78
2022/05/16 09:01:18;;;;;;;9.75;2.22;;;34.50;38.30;;;;;;5026690;28;20033;-77
2022/05/16 09:04:04;;;;;;;6.97;2.10;;;34.30;39.10;;;;;;5049485;28;20060;-80
2022/05/16 09:06:53;;;;;;;9.32;2.22;;;34.50;37.30;;;;;;5050290;28;20054;-82
2022/05/16 09:09:22;;;;;;;5.68;1.83;;;34.80;38.10;;;;;;5034263;28;20048;-85
2022/05/16 09:11:58;;;;;;;6.50;2.13;;;35.00;37.80;;;;;;5033035;28;20188;-81
2022/05/16 09:14:42;;;;;;;6.03;1.73;;;35.10;38.10;;;;;;5032820;28;20042;-77
2022/05/16 09:17:15;;;;;;;10.07;2.75;;;35.20;37.10;;;;;;5029227;28;20044;-75
2022/05/16 09:20:05;;;;;;;7.47;2.20;;;34.40;37.60;;;;;;5029426;28;20037;-79
2022/05/16 09:22:41;;;;;;;10.88;2.63;;;33.70;37.50;;;;;;5013721;28;20458;-83
2022/05/16 09:25:15;;;;;;;5.82;2.28;;;34.50;38.00;;;;;;5014496;28;20034;-85
2022/05/16 09:30:30;;;;;;;14.23;2.35;;;35.40;36.10;;;;;;5014558;28;20502;-80
2022/05/16 09:33:06;;;;;;;7.28;2.25;;;34.80;36.60;;;;;;5014128;28;20034;-79
2022/05/16 09:35:37;;;;;;;8.73;1.90;;;34.60;37.10;;;;;;5013991;28;20092;-82
2022/05/16 09:38:04;;;;;;;9.77;2.35;;;34.60;36.20;;;;;;5014467;28;20790;-81
2022/05/16 09:40:35;;;;;;;6.90;2.15;;;34.40;37.50;;;;;;5014381;28;20456;-84
2022/05/16 09:43:06;;;;;;;13.48;2.78;;;33.90;36.70;;;;;;5014097;28;20085;-82
2022/05/16 09:45:33;;;;;;;7.15;2.17;;;33.80;37.20;;;;;;5029672;28;20061;-82
2022/05/16 09:47:59;;;;;;;10.63;2.28;;;33.80;37.00;;;;;;5013704;28;20042;-80
2022/05/16 09:50:28;;;;;;;8.25;2.05;;;34.00;37.30;;;;;;5013702;28;20030;-84
2022/05/16 09:53:04;;;;;;;11.95;2.78;;;33.60;37.70;;;;;;5013764;28;20034;-81
2022/05/16 09:55:33;;;;;;;7.43;2.07;;;32.90;38.30;;;;;;5013343;28;20065;-78
2022/05/16 09:58:18;;;;;;;13.40;2.17;;;32.00;39.00;;;;;;5028886;28;20114;-78
2022/05/16 10:00:54;;;;;;;18.02;8.48;;;31.50;40.00;;;;;;5012944;28;20030;-78
2022/05/16 10:03:43;;;;;;;9.52;2.08;;;31.20;40.00;;;;;;5013482;28;20104;-81
2022/05/16 10:06:35;;;;;;;4.45;1.80;;;31.10;40.50;;;;;;5009916;28;20103;-83
2022/05/16 10:09:14;;;;;;;6.90;1.50;;;31.00;40.20;;;;;;5028984;28;20363;-78
2022/05/16 10:11:43;;;;;;;14.02;4.35;;;30.50;41.10;;;;;;5013163;28;20030;-76
2022/05/16 10:14:09;;;;;;;9.40;2.50;;;30.50;41.40;;;;;;5028426;28;20045;-78
2022/05/16 10:16:43;;;;;;;10.32;1.90;;;30.20;42.20;;;;;;5012115;28;20034;-84
2022/05/16 10:19:11;;;;;;;8.55;2.42;;;30.00;42.10;;;;;;5013539;28;20034;-83
2022/05/16 10:21:48;;;;;;;5.28;2.00;;;29.90;42.30;;;;;;5013257;28;20478;-82
2022/05/16 10:24:14;;;;;;;7.90;2.22;;;29.80;42.80;;;;;;5013584;28;20117;-81
2022/05/16 10:26:46;;;;;;;10.35;2.28;;;29.20;43.40;;;;;;5013297;28;20037;-83
2022/05/16 10:29:22;;;;;;;7.25;2.20;;;29.40;43.40;;;;;;5029317;28;20030;-83
2022/05/16 10:35:03;;;;;;;8.00;2.13;;;29.30;43.00;;;;;;5013696;28;20371;-79
2022/05/16 10:37:32;;;;;;;7.60;2.83;;;29.50;43.60;;;;;;5013500;28;20037;-78
2022/05/16 10:40:07;;;;;;;6.10;3.08;;;29.40;43.70;;;;;;5013186;28;20041;-82
2022/05/16 10:42:52;;;;;;;11.52;2.63;;;29.50;43.50;;;;;;5028301;28;20033;-80
2022/05/16 10:45:21;;;;;;;4.63;2.28;;;29.50;43.40;;;;;;5013845;28;20038;-79
2022/05/16 10:48:08;;;;;;;9.68;2.60;;;29.30;43.80;;;;;;5013756;28;20141;-83
2022/05/16 10:50:44;;;;;;;9.33;3.27;;;29.30;43.90;;;;;;5013983;28;20168;-82
2022/05/16 10:53:33;;;;;;;9.05;2.75;;;29.30;44.30;;;;;;5016176;28;20030;-80
2022/05/16 10:56:20;;;;;;;13.02;2.58;;;29.20;44.20;;;;;;5015528;28;20117;-86
2022/05/16 10:59:02;;;;;;;10.00;2.80;;;29.30;44.20;;;;;;5015302;28;20486;-85
2022/05/16 11:01:42;;;;;;;8.52;2.40;;;29.10;44.50;;;;;;5014968;28;20034;-86
2022/05/16 11:04:13;;;;;;;7.88;2.30;;;29.10;44.70;;;;;;5015913;28;20045;-80
2022/05/16 11:07:00;;;;;;;6.72;2.47;;;29.00;44.80;;;;;;5016211;28;20089;-82
2022/05/16 11:09:41;;;;;;;13.75;2.42;;;28.90;44.90;;;;;;5030595;28;20018;-80
2022/05/16 11:12:16;;;;;;;12.10;2.78;;;28.50;45.50;;;;;;5016973;28;20038;-81
2022/05/16 11:15:06;;;;;;;4.07;2.03;;;28.50;45.30;;;;;;5028625;28;20044;-83
2022/05/16 11:17:50;;;;;;;5.90;2.22;;;28.60;45.30;;;;;;5012016;28;20046;-83
2022/05/16 11:20:27;;;;;;;6.90;2.20;;;28.60;45.60;;;;;;5012177;28;20119;-83
2022/05/16 11:23:18;;;;;;;8.25;2.65;;;28.40;45.70;;;;;;5011672;28;20042;-82
2022/05/16 11:25:59;;;;;;;10.80;2.60;;;28.30;46.00;;;;;;5011843;28;20049;-82
2022/05/16 11:28:33;;;;;;;12.60;4.00;;;28.40;46.50;;;;;;5011622;28;20030;-79
2022/05/16 11:31:14;;;;;;;8.68;2.33;;;28.40;47.00;;;;;;5026969;28;20483;-83
2022/05/16 11:33:51;;;;;;;8.77;2.28;;;28.40;47.10;;;;;;5011695;28;20026;-82
2022/05/16 11:36:32;;;;;;;7.93;2.80;;;28.50;47.10;;;;;;5011809;28;20029;-80
2022/05/16 11:38:58;;;;;;;7.53;2.53;;;28.50;46.70;;;;;;5011200;28;20100;-78
2022/05/16 11:41:42;;;;;;;10.90;3.35;;;28.50;46.50;;;;;;5010831;28;20501;-81
2022/05/16 11:44:40;;;;;;;6.18;2.78;;;28.50;46.50;;;;;;5010976;28;20077;-85
2022/05/16 11:47:24;;;;;;;4.93;2.00;;;28.50;46.70;;;;;;5010882;28;20022;-83
2022/05/16 11:50:05;;;;;;;11.75;2.67;;;28.60;46.80;;;;;;5011277;28;20030;-86
2022/05/16 11:52:44;;;;;;;9.10;3.35;;;28.50;46.90;;;;;;5010072;28;20026;-82
2022/05/16 12:01:19;;;;;;;12.57;2.55;;;28.10;47.80;;;;;;5011003;28;20152;-80
2022/05/16 12:04:01;;;;;;;7.97;2.95;;;27.90;47.90;;;;;;5024951;28;20022;-87
2022/05/16 12:06:36;;;;;;;8.07;2.30;;;27.80;48.00;;;;;;5011320;28;20051;-80
2022/05/16 12:09:31;;;;;;;5.00;2.33;;;27.70;48.50;;;;;;5010891;28;20073;-79
2022/05/16 12:12:11;;;;;;;6.10;2.65;;;27.60;48.90;;;;;;5010598;28;20042;-82
2022/05/16 12:14:39;;;;;;;7.75;2.25;;;27.60;49.10;;;;;;5010764;28;20034;-79
2022/05/16 12:17:08;;;;;;;6.15;2.33;;;27.50;49.00;;;;;;5010537;28;20345;-81
2022/05/16 12:19:39;;;;;;;3.78;2.15;;;27.40;49.30;;;;;;5026119;28;20042;-85
2022/05/16 12:22:10;;;;;;;9.10;2.70;;;27.20;50.30;;;;;;5010624;28;20029;-77
2022/05/16 12:24:40;;;;;;;6.93;2.47;;;27.10;49.90;;;;;;5011367;28;20087;-80
2022/05/16 12:27:29;;;;;;;8.48;2.60;;;26.90;49.90;;;;;;5011046;28;20152;-79
2022/05/16 12:30:10;;;;;;;8.00;2.30;;;27.00;50.00;;;;;;5009643;28;20026;-82
2022/05/16 12:32:35;;;;;;;9.90;3.42;;;26.90;50.40;;;;;;5010707;28;20041;-79
2022/05/16 12:35:33;;;;;;;9.13;2.78;;;26.70;50.80;;;;;;5026134;28;20030;-78
2022/05/16 12:37:58;;;;;;;6.68;2.30;;;26.80;51.10;;;;;;5010879;28;20041;-77
2022/05/16 12:40:38;;;;;;;8.50;2.80;;;26.80;51.70;;;;;;5010425;28;20029;-76
2022/05/16 12:43:23;;;;;;;9.50;2.90;;;26.80;51.10;;;;;;5010521;28;20037;-77
2022/05/16 12:46:12;;;;;;;10.50;2.90;;;26.80;51.50;;;;;;5011563;28;20109;-89
2022/05/16 12:48:46;;;;;;;9.50;2.63;;;26.80;51.50;;;;;;5019420;28;20030;-89
2022/05/16 12:51:50;;;;;;;14.77;5.63;;;26.70;52.10;;;;;;5030904;28;20088;-96
2022/05/16 12:54:38;;;;;;;8.50;3.08;;;26.80;52.10;;;;;;5046770;28;20038;-74
2022/05/16 12:57:25;;;;;;;8.13;2.80;;;26.80;52.20;;;;;;5013486;28;20102;-76
2022/05/16 13:00:11;;;;;;;6.85;2.55;;;26.80;52.40;;;;;;5016556;28;20029;-93
2022/05/16 13:02:48;;;;;;;9.05;2.70;;;26.90;52.00;;;;;;5016851;28;20478;-93
2022/05/16 13:05:29;;;;;;;9.45;2.50;;;26.90;52.00;;;;;;5033051;28;20034;-91
2022/05/16 13:08:03;;;;;;;11.10;2.35;;;26.90;51.90;;;;;;5017607;28;20037;-90
2022/05/16 13:10:57;;;;;;;7.90;2.53;;;26.90;52.10;;;;;;5030261;28;20367;-81
2022/05/16 13:13:41;;;;;;;11.95;2.55;;;26.90;52.00;;;;;;5013243;28;20030;-79
2022/05/16 13:16:25;;;;;;;9.60;3.05;;;26.80;52.70;;;;;;5018972;28;20346;-78
2022/05/16 13:19:03;;;;;;;8.48;3.25;;;26.80;52.60;;;;;;5033407;28;20033;-78
2022/05/16 13:21:54;;;;;;;9.07;2.72;;;26.80;53.00;;;;;;5049234;28;20394;-79
2022/05/16 13:24:23;;;;;;;10.05;2.78;;;26.80;53.00;;;;;;5033808;28;20037;-78
2022/05/16 13:29:37;;;;;;;8.52;3.92;;;26.70;52.80;;;;;;5034472;28;20528;-78
2022/05/16 13:32:12;;;;;;;9.88;3.03;;;26.60;53.20;;;;;;5034799;28;20034;-78
2022/05/16 13:34:53;;;;;;;14.55;2.75;;;26.50;53.50;;;;;;5049917;28;20026;-78
2022/05/16 13:37:26;;;;;;;10.25;2.83;;;26.40;52.50;;;;;;5034592;28;20535;-81
2022/05/16 13:40:18;;;;;;;8.60;2.90;;;26.30;52.50;;;;;;5034839;28;20495;-82
2022/05/16 13:42:44;;;;;;;8.32;2.83;;;26.20;52.60;;;;;;5031895;28;20025;-78